Allison, Colorado
Current Conditions -  °F | °C
As of 12:53 AM on Sunday 21 Dec 2014 (Local Time) from KDRO Reporting Station
Overcast Overcast  
Wind Chill: 29°   Ceiling: 6000
Heat Index: 29°   Visibility: 10mi
Dew Point: 26°   Wind: 3mph
Humidity: 89%   Direction: 60°ENE
Pressure: 30.07"   Gusts: NA
Location:  37.0891°N, 107.649°W
Report Text: KDRO 210753Z AUTO 06003KT 10SM OVC060 M02/M03 A3007 RMK AO2 SLP198 T10171033
Loading
Personal Weather Stations






























Interactive Weather Map New forecast layout! Learn more

10-Day Weather Forecast

Advertisements
Track Severe Weather on mobile